Ackworth, Iowa
Current Conditions -  °F | °C
As of 10:54 AM on Wednesday 22 Oct 2014 (Local Time) from KDSM Reporting Station
Overcast Overcast  
Wind Chill: 54°   Ceiling: 4800
Heat Index: 54°   Visibility: 10mi
Dew Point: 42°   Wind: 18mph
Humidity: 64%   Direction: 150°SSE
Pressure: 30.22"   Gusts: NA
Location:  41.37°N, 93.47°W
Report Text: KDSM 221554Z 15016KT 10SM OVC048 12/06 A3022 RMK AO2 SLP236 T01220056
Loading
Personal Weather Stations






























Interactive Weather Map New forecast layout! Learn more

10-Day Weather Forecast

Advertisements
Track Severe Weather on mobile